sensor_id;sensor_type;location;lat;lon;timestamp;P1;durP1;ratioP1;P2;durP2;ratioP2
35606;SDS011;21729;58.392;15.656;2022-07-05T00:01:24;1.48;;;0.70;;
35606;SDS011;21729;58.392;15.656;2022-07-05T00:03:51;1.27;;;0.70;;
35606;SDS011;21729;58.392;15.656;2022-07-05T00:06:18;1.25;;;0.60;;
35606;SDS011;21729;58.392;15.656;2022-07-05T00:08:45;2.90;;;0.57;;
35606;SDS011;21729;58.392;15.656;2022-07-05T00:11:12;1.20;;;0.70;;
35606;SDS011;21729;58.392;15.656;2022-07-05T00:13:39;0.45;;;0.45;;
35606;SDS011;21729;58.392;15.656;2022-07-05T00:16:06;1.33;;;0.73;;
35606;SDS011;21729;58.392;15.656;2022-07-05T00:18:35;1.38;;;0.80;;
35606;SDS011;21729;58.392;15.656;2022-07-05T00:21:02;0.70;;;0.55;;
35606;SDS011;21729;58.392;15.656;2022-07-05T00:23:29;1.77;;;0.60;;
35606;SDS011;21729;58.392;15.656;2022-07-05T00:25:56;0.80;;;0.80;;
35606;SDS011;21729;58.392;15.656;2022-07-05T00:28:23;1.15;;;0.68;;
35606;SDS011;21729;58.392;15.656;2022-07-05T00:30:50;0.80;;;0.57;;
35606;SDS011;21729;58.392;15.656;2022-07-05T00:33:17;1.70;;;0.65;;
35606;SDS011;21729;58.392;15.656;2022-07-05T00:35:46;1.40;;;0.70;;
35606;SDS011;21729;58.392;15.656;2022-07-05T00:38:13;0.70;;;0.60;;
35606;SDS011;21729;58.392;15.656;2022-07-05T00:40:41;1.30;;;0.63;;
35606;SDS011;21729;58.392;15.656;2022-07-05T00:43:09;0.68;;;0.55;;
35606;SDS011;21729;58.392;15.656;2022-07-05T00:45:36;0.80;;;0.60;;
35606;SDS011;21729;58.392;15.656;2022-07-05T00:48:03;1.30;;;0.80;;
35606;SDS011;21729;58.392;15.656;2022-07-05T00:50:31;1.30;;;0.68;;
35606;SDS011;21729;58.392;15.656;2022-07-05T00:52:59;1.23;;;1.13;;
35606;SDS011;21729;58.392;15.656;2022-07-05T00:55:26;1.48;;;0.90;;
35606;SDS011;21729;58.392;15.656;2022-07-05T00:57:53;1.92;;;0.70;;
35606;SDS011;21729;58.392;15.656;2022-07-05T01:00:21;2.20;;;0.70;;
35606;SDS011;21729;58.392;15.656;2022-07-05T01:02:48;1.42;;;0.75;;
35606;SDS011;21729;58.392;15.656;2022-07-05T01:05:15;2.00;;;0.70;;
35606;SDS011;21729;58.392;15.656;2022-07-05T01:07:42;2.45;;;0.70;;
35606;SDS011;21729;58.392;15.656;2022-07-05T01:10:11;1.20;;;0.70;;
35606;SDS011;21729;58.392;15.656;2022-07-05T01:12:38;1.25;;;0.70;;
35606;SDS011;21729;58.392;15.656;2022-07-05T01:15:06;1.10;;;0.70;;
35606;SDS011;21729;58.392;15.656;2022-07-05T01:17:34;1.65;;;0.82;;
35606;SDS011;21729;58.392;15.656;2022-07-05T01:20:03;1.77;;;0.82;;
35606;SDS011;21729;58.392;15.656;2022-07-05T01:25:19;1.42;;;1.00;;
35606;SDS011;21729;58.392;15.656;2022-07-05T01:27:47;1.60;;;0.80;;
35606;SDS011;21729;58.392;15.656;2022-07-05T01:30:14;1.60;;;1.08;;
35606;SDS011;21729;58.392;15.656;2022-07-05T01:32:42;1.70;;;0.85;;
35606;SDS011;21729;58.392;15.656;2022-07-05T01:35:10;1.05;;;0.80;;
35606;SDS011;21729;58.392;15.656;2022-07-05T01:37:38;2.30;;;0.90;;
35606;SDS011;21729;58.392;15.656;2022-07-05T01:40:07;1.40;;;0.80;;
35606;SDS011;21729;58.392;15.656;2022-07-05T01:42:35;0.70;;;0.70;;
35606;SDS011;21729;58.392;15.656;2022-07-05T01:45:02;2.00;;;1.00;;
35606;SDS011;21729;58.392;15.656;2022-07-05T01:47:30;1.47;;;0.80;;
35606;SDS011;21729;58.392;15.656;2022-07-05T01:50:02;2.00;;;1.07;;
35606;SDS011;21729;58.392;15.656;2022-07-05T01:52:31;0.88;;;0.75;;
35606;SDS011;21729;58.392;15.656;2022-07-05T01:55:00;1.35;;;0.82;;
35606;SDS011;21729;58.392;15.656;2022-07-05T01:57:29;1.95;;;0.95;;
35606;SDS011;21729;58.392;15.656;2022-07-05T01:59:56;1.90;;;0.80;;
35606;SDS011;21729;58.392;15.656;2022-07-05T02:02:23;1.30;;;0.90;;
35606;SDS011;21729;58.392;15.656;2022-07-05T02:04:50;1.70;;;1.00;;
35606;SDS011;21729;58.392;15.656;2022-07-05T02:07:17;2.85;;;1.05;;
35606;SDS011;21729;58.392;15.656;2022-07-05T02:09:44;1.50;;;0.70;;
35606;SDS011;21729;58.392;15.656;2022-07-05T02:12:11;1.15;;;0.98;;
35606;SDS011;21729;58.392;15.656;2022-07-05T02:14:40;2.40;;;0.85;;
35606;SDS011;21729;58.392;15.656;2022-07-05T02:17:07;0.80;;;0.80;;
35606;SDS011;21729;58.392;15.656;2022-07-05T02:19:34;1.50;;;0.80;;
35606;SDS011;21729;58.392;15.656;2022-07-05T02:22:04;2.25;;;0.88;;
35606;SDS011;21729;58.392;15.656;2022-07-05T02:24:31;1.17;;;0.85;;
35606;SDS011;21729;58.392;15.656;2022-07-05T02:26:58;1.38;;;0.70;;
35606;SDS011;21729;58.392;15.656;2022-07-05T02:29:25;0.80;;;0.80;;
35606;SDS011;21729;58.392;15.656;2022-07-05T02:31:53;1.23;;;0.90;;
35606;SDS011;21729;58.392;15.656;2022-07-05T02:34:20;1.33;;;0.90;;
35606;SDS011;21729;58.392;15.656;2022-07-05T02:36:47;1.10;;;0.77;;
35606;SDS011;21729;58.392;15.656;2022-07-05T02:39:14;1.05;;;0.70;;
35606;SDS011;21729;58.392;15.656;2022-07-05T02:41:42;1.80;;;0.80;;
35606;SDS011;21729;58.392;15.656;2022-07-05T02:44:09;4.22;;;0.85;;
35606;SDS011;21729;58.392;15.656;2022-07-05T02:46:36;0.85;;;0.85;;
35606;SDS011;21729;58.392;15.656;2022-07-05T02:49:05;0.77;;;0.77;;
35606;SDS011;21729;58.392;15.656;2022-07-05T02:51:32;2.90;;;0.82;;
35606;SDS011;21729;58.392;15.656;2022-07-05T02:53:59;2.30;;;0.80;;
35606;SDS011;21729;58.392;15.656;2022-07-05T02:56:26;2.78;;;0.77;;
35606;SDS011;21729;58.392;15.656;2022-07-05T02:58:53;2.67;;;0.88;;
35606;SDS011;21729;58.392;15.656;2022-07-05T03:01:20;0.90;;;0.90;;
35606;SDS011;21729;58.392;15.656;2022-07-05T03:03:47;3.00;;;0.90;;
35606;SDS011;21729;58.392;15.656;2022-07-05T03:06:15;1.50;;;0.80;;
35606;SDS011;21729;58.392;15.656;2022-07-05T03:08:42;2.20;;;0.95;;
35606;SDS011;21729;58.392;15.656;2022-07-05T03:11:09;3.00;;;0.90;;
35606;SDS011;21729;58.392;15.656;2022-07-05T03:13:36;2.58;;;0.98;;
35606;SDS011;21729;58.392;15.656;2022-07-05T03:16:04;1.40;;;0.70;;
35606;SDS011;21729;58.392;15.656;2022-07-05T03:18:31;2.50;;;0.93;;
35606;SDS011;21729;58.392;15.656;2022-07-05T03:20:58;1.45;;;0.73;;
35606;SDS011;21729;58.392;15.656;2022-07-05T03:23:26;1.52;;;0.80;;
35606;SDS011;21729;58.392;15.656;2022-07-05T03:25:53;1.90;;;0.93;;
35606;SDS011;21729;58.392;15.656;2022-07-05T03:28:20;1.15;;;0.77;;
35606;SDS011;21729;58.392;15.656;2022-07-05T03:30:47;1.25;;;0.70;;
35606;SDS011;21729;58.392;15.656;2022-07-05T03:33:14;1.20;;;0.88;;
35606;SDS011;21729;58.392;15.656;2022-07-05T03:35:42;1.52;;;0.80;;
35606;SDS011;21729;58.392;15.656;2022-07-05T03:38:09;1.10;;;0.60;;
35606;SDS011;21729;58.392;15.656;2022-07-05T03:40:37;0.88;;;0.75;;
35606;SDS011;21729;58.392;15.656;2022-07-05T03:43:04;2.75;;;0.90;;
35606;SDS011;21729;58.392;15.656;2022-07-05T03:45:31;1.65;;;0.73;;
35606;SDS011;21729;58.392;15.656;2022-07-05T03:47:58;2.50;;;0.95;;
35606;SDS011;21729;58.392;15.656;2022-07-05T03:50:25;2.30;;;1.10;;
35606;SDS011;21729;58.392;15.656;2022-07-05T03:52:52;1.60;;;0.90;;
35606;SDS011;21729;58.392;15.656;2022-07-05T03:55:19;3.00;;;0.90;;
35606;SDS011;21729;58.392;15.656;2022-07-05T03:57:48;2.33;;;0.90;;
35606;SDS011;21729;58.392;15.656;2022-07-05T04:00:15;2.10;;;0.73;;
35606;SDS011;21729;58.392;15.656;2022-07-05T04:02:42;2.33;;;0.88;;
35606;SDS011;21729;58.392;15.656;2022-07-05T04:05:09;3.10;;;1.08;;
35606;SDS011;21729;58.392;15.656;2022-07-05T04:07:46;2.03;;;0.80;;
35606;SDS011;21729;58.392;15.656;2022-07-05T04:10:14;4.80;;;1.10;;
35606;SDS011;21729;58.392;15.656;2022-07-05T04:12:41;2.30;;;0.80;;
35606;SDS011;21729;58.392;15.656;2022-07-05T04:15:10;2.33;;;0.80;;
35606;SDS011;21729;58.392;15.656;2022-07-05T04:17:45;2.63;;;0.90;;
35606;SDS011;21729;58.392;15.656;2022-07-05T04:20:13;2.38;;;0.93;;
35606;SDS011;21729;58.392;15.656;2022-07-05T04:22:42;1.92;;;0.63;;
35606;SDS011;21729;58.392;15.656;2022-07-05T04:25:09;2.80;;;1.00;;
35606;SDS011;21729;58.392;15.656;2022-07-05T04:27:46;2.47;;;0.73;;
35606;SDS011;21729;58.392;15.656;2022-07-05T04:30:16;3.10;;;0.80;;
35606;SDS011;21729;58.392;15.656;2022-07-05T04:32:44;1.40;;;0.80;;
35606;SDS011;21729;58.392;15.656;2022-07-05T04:35:11;1.47;;;0.70;;
35606;SDS011;21729;58.392;15.656;2022-07-05T04:37:39;1.95;;;0.88;;
35606;SDS011;21729;58.392;15.656;2022-07-05T04:40:07;1.70;;;0.80;;
35606;SDS011;21729;58.392;15.656;2022-07-05T04:42:37;1.55;;;0.90;;
35606;SDS011;21729;58.392;15.656;2022-07-05T04:45:05;1.20;;;0.70;;
35606;SDS011;21729;58.392;15.656;2022-07-05T04:47:34;3.33;;;0.90;;
35606;SDS011;21729;58.392;15.656;2022-07-05T04:50:02;1.88;;;0.80;;
35606;SDS011;21729;58.392;15.656;2022-07-05T04:52:30;2.17;;;0.80;;
35606;SDS011;21729;58.392;15.656;2022-07-05T04:54:57;2.90;;;0.70;;
35606;SDS011;21729;58.392;15.656;2022-07-05T04:57:24;1.67;;;0.90;;
35606;SDS011;21729;58.392;15.656;2022-07-05T04:59:52;0.90;;;0.70;;
35606;SDS011;21729;58.392;15.656;2022-07-05T05:02:19;2.22;;;0.90;;
35606;SDS011;21729;58.392;15.656;2022-07-05T05:04:47;3.30;;;1.00;;
35606;SDS011;21729;58.392;15.656;2022-07-05T05:07:14;3.45;;;0.70;;
35606;SDS011;21729;58.392;15.656;2022-07-05T05:09:41;6.90;;;0.75;;
35606;SDS011;21729;58.392;15.656;2022-07-05T05:12:08;2.10;;;0.50;;
35606;SDS011;21729;58.392;15.656;2022-07-05T05:14:35;3.25;;;0.70;;
35606;SDS011;21729;58.392;15.656;2022-07-05T05:17:03;2.45;;;0.70;;
35606;SDS011;21729;58.392;15.656;2022-07-05T05:19:30;3.13;;;0.60;;
35606;SDS011;21729;58.392;15.656;2022-07-05T05:21:58;2.58;;;0.80;;
35606;SDS011;21729;58.392;15.656;2022-07-05T05:24:25;2.05;;;0.80;;
35606;SDS011;21729;58.392;15.656;2022-07-05T05:26:52;1.60;;;0.85;;
35606;SDS011;21729;58.392;15.656;2022-07-05T05:29:19;1.70;;;0.90;;
35606;SDS011;21729;58.392;15.656;2022-07-05T05:31:47;2.10;;;0.90;;
35606;SDS011;21729;58.392;15.656;2022-07-05T05:34:14;2.20;;;0.88;;
35606;SDS011;21729;58.392;15.656;2022-07-05T05:36:41;3.15;;;0.90;;
35606;SDS011;21729;58.392;15.656;2022-07-05T05:39:09;2.08;;;0.90;;
35606;SDS011;21729;58.392;15.656;2022-07-05T05:41:36;1.63;;;0.90;;
35606;SDS011;21729;58.392;15.656;2022-07-05T05:44:03;2.03;;;1.08;;
35606;SDS011;21729;58.392;15.656;2022-07-05T05:46:31;2.37;;;0.90;;
35606;SDS011;21729;58.392;15.656;2022-07-05T05:48:58;3.55;;;0.90;;
35606;SDS011;21729;58.392;15.656;2022-07-05T05:51:25;3.15;;;0.90;;
35606;SDS011;21729;58.392;15.656;2022-07-05T05:53:52;3.28;;;0.88;;
35606;SDS011;21729;58.392;15.656;2022-07-05T05:56:20;2.10;;;0.80;;
35606;SDS011;21729;58.392;15.656;2022-07-05T05:58:47;2.00;;;0.50;;
35606;SDS011;21729;58.392;15.656;2022-07-05T06:01:14;1.90;;;0.68;;
35606;SDS011;21729;58.392;15.656;2022-07-05T06:03:41;2.95;;;0.80;;
35606;SDS011;21729;58.392;15.656;2022-07-05T06:06:08;2.40;;;0.70;;
35606;SDS011;21729;58.392;15.656;2022-07-05T06:08:36;1.83;;;0.70;;
35606;SDS011;21729;58.392;15.656;2022-07-05T06:11:03;2.28;;;0.65;;
35606;SDS011;21729;58.392;15.656;2022-07-05T06:13:31;1.98;;;0.80;;
35606;SDS011;21729;58.392;15.656;2022-07-05T06:15:58;1.70;;;0.60;;
35606;SDS011;21729;58.392;15.656;2022-07-05T06:18:26;1.25;;;0.70;;
35606;SDS011;21729;58.392;15.656;2022-07-05T06:20:53;2.38;;;0.82;;
35606;SDS011;21729;58.392;15.656;2022-07-05T06:23:20;1.60;;;0.50;;
35606;SDS011;21729;58.392;15.656;2022-07-05T06:25:47;1.80;;;0.70;;
35606;SDS011;21729;58.392;15.656;2022-07-05T06:28:14;2.42;;;0.80;;
35606;SDS011;21729;58.392;15.656;2022-07-05T06:30:43;2.10;;;0.50;;
35606;SDS011;21729;58.392;15.656;2022-07-05T06:33:10;1.20;;;0.60;;
35606;SDS011;21729;58.392;15.656;2022-07-05T06:35:37;1.30;;;0.60;;
35606;SDS011;21729;58.392;15.656;2022-07-05T06:38:04;1.55;;;0.60;;
35606;SDS011;21729;58.392;15.656;2022-07-05T06:40:33;1.05;;;0.55;;
35606;SDS011;21729;58.392;15.656;2022-07-05T06:43:02;1.58;;;0.60;;
35606;SDS011;21729;58.392;15.656;2022-07-05T06:45:30;1.63;;;0.60;;
35606;SDS011;21729;58.392;15.656;2022-07-05T06:47:59;1.58;;;0.68;;
35606;SDS011;21729;58.392;15.656;2022-07-05T06:50:27;1.58;;;0.60;;
35606;SDS011;21729;58.392;15.656;2022-07-05T06:52:55;1.52;;;0.63;;
35606;SDS011;21729;58.392;15.656;2022-07-05T06:55:23;0.80;;;0.50;;
35606;SDS011;21729;58.392;15.656;2022-07-05T06:57:56;2.00;;;0.60;;
35606;SDS011;21729;58.392;15.656;2022-07-05T07:00:25;1.73;;;0.52;;
35606;SDS011;21729;58.392;15.656;2022-07-05T07:02:52;1.08;;;0.50;;
35606;SDS011;21729;58.392;15.656;2022-07-05T07:05:21;1.40;;;0.70;;
35606;SDS011;21729;58.392;15.656;2022-07-05T07:07:48;2.00;;;0.80;;
35606;SDS011;21729;58.392;15.656;2022-07-05T07:10:33;1.20;;;0.60;;
35606;SDS011;21729;58.392;15.656;2022-07-05T07:13:00;1.23;;;0.55;;
35606;SDS011;21729;58.392;15.656;2022-07-05T07:15:27;2.05;;;0.80;;
35606;SDS011;21729;58.392;15.656;2022-07-05T07:17:55;1.75;;;0.73;;
35606;SDS011;21729;58.392;15.656;2022-07-05T07:20:24;2.20;;;0.80;;
35606;SDS011;21729;58.392;15.656;2022-07-05T07:22:51;1.67;;;0.55;;
35606;SDS011;21729;58.392;15.656;2022-07-05T07:25:18;2.72;;;0.68;;
35606;SDS011;21729;58.392;15.656;2022-07-05T07:27:49;1.35;;;0.60;;
35606;SDS011;21729;58.392;15.656;2022-07-05T07:30:17;1.73;;;0.50;;
35606;SDS011;21729;58.392;15.656;2022-07-05T07:32:46;1.20;;;0.70;;
35606;SDS011;21729;58.392;15.656;2022-07-05T07:35:13;1.63;;;0.70;;
35606;SDS011;21729;58.392;15.656;2022-07-05T07:37:42;1.92;;;0.60;;
35606;SDS011;21729;58.392;15.656;2022-07-05T07:40:09;1.30;;;0.57;;
35606;SDS011;21729;58.392;15.656;2022-07-05T07:42:36;1.48;;;0.70;;
35606;SDS011;21729;58.392;15.656;2022-07-05T07:45:04;1.33;;;0.70;;
35606;SDS011;21729;58.392;15.656;2022-07-05T07:47:31;1.98;;;0.60;;
35606;SDS011;21729;58.392;15.656;2022-07-05T07:49:59;1.67;;;0.60;;
35606;SDS011;21729;58.392;15.656;2022-07-05T07:52:26;2.88;;;0.50;;
35606;SDS011;21729;58.392;15.656;2022-07-05T07:54:56;2.22;;;0.60;;
35606;SDS011;21729;58.392;15.656;2022-07-05T07:57:24;2.33;;;0.70;;
35606;SDS011;21729;58.392;15.656;2022-07-05T07:59:51;2.90;;;0.70;;
35606;SDS011;21729;58.392;15.656;2022-07-05T08:02:18;1.70;;;0.65;;
35606;SDS011;21729;58.392;15.656;2022-07-05T08:04:46;1.63;;;0.65;;
35606;SDS011;21729;58.392;15.656;2022-07-05T08:07:13;2.50;;;0.70;;
35606;SDS011;21729;58.392;15.656;2022-07-05T08:09:40;2.05;;;0.70;;
35606;SDS011;21729;58.392;15.656;2022-07-05T08:12:09;1.42;;;0.60;;
35606;SDS011;21729;58.392;15.656;2022-07-05T08:14:36;1.35;;;0.60;;
35606;SDS011;21729;58.392;15.656;2022-07-05T08:17:04;1.05;;;0.50;;
35606;SDS011;21729;58.392;15.656;2022-07-05T08:19:33;1.73;;;0.50;;
35606;SDS011;21729;58.392;15.656;2022-07-05T08:22:18;1.35;;;0.60;;
35606;SDS011;21729;58.392;15.656;2022-07-05T08:24:45;0.98;;;0.50;;
35606;SDS011;21729;58.392;15.656;2022-07-05T08:27:14;1.83;;;0.60;;
35606;SDS011;21729;58.392;15.656;2022-07-05T08:29:41;0.85;;;0.40;;
35606;SDS011;21729;58.392;15.656;2022-07-05T08:32:09;1.60;;;0.63;;
35606;SDS011;21729;58.392;15.656;2022-07-05T08:34:36;3.03;;;0.50;;
35606;SDS011;21729;58.392;15.656;2022-07-05T08:37:04;1.27;;;0.60;;
35606;SDS011;21729;58.392;15.656;2022-07-05T08:39:31;0.80;;;0.40;;
35606;SDS011;21729;58.392;15.656;2022-07-05T08:41:59;2.10;;;0.55;;
35606;SDS011;21729;58.392;15.656;2022-07-05T08:44:28;1.95;;;0.57;;
35606;SDS011;21729;58.392;15.656;2022-07-05T08:46:58;0.90;;;0.40;;
35606;SDS011;21729;58.392;15.656;2022-07-05T08:49:28;1.80;;;0.50;;
35606;SDS011;21729;58.392;15.656;2022-07-05T08:51:58;0.57;;;0.43;;
35606;SDS011;21729;58.392;15.656;2022-07-05T08:54:29;1.15;;;0.45;;
35606;SDS011;21729;58.392;15.656;2022-07-05T08:56:57;1.55;;;0.65;;
35606;SDS011;21729;58.392;15.656;2022-07-05T08:59:24;1.53;;;0.60;;
35606;SDS011;21729;58.392;15.656;2022-07-05T09:01:52;1.13;;;0.50;;
35606;SDS011;21729;58.392;15.656;2022-07-05T09:04:21;1.17;;;0.60;;
35606;SDS011;21729;58.392;15.656;2022-07-05T09:06:50;1.30;;;0.60;;
35606;SDS011;21729;58.392;15.656;2022-07-05T09:09:21;1.15;;;0.40;;
35606;SDS011;21729;58.392;15.656;2022-07-05T09:11:50;1.35;;;0.70;;
35606;SDS011;21729;58.392;15.656;2022-07-05T09:14:20;1.63;;;0.52;;
35606;SDS011;21729;58.392;15.656;2022-07-05T09:16:49;1.88;;;0.60;;
35606;SDS011;21729;58.392;15.656;2022-07-05T09:19:18;1.50;;;0.50;;
35606;SDS011;21729;58.392;15.656;2022-07-05T09:21:45;1.67;;;0.52;;
35606;SDS011;21729;58.392;15.656;2022-07-05T09:24:12;2.17;;;0.60;;
35606;SDS011;21729;58.392;15.656;2022-07-05T09:26:40;2.35;;;0.60;;
35606;SDS011;21729;58.392;15.656;2022-07-05T09:29:09;1.90;;;0.50;;
35606;SDS011;21729;58.392;15.656;2022-07-05T09:31:38;1.33;;;0.40;;
35606;SDS011;21729;58.392;15.656;2022-07-05T09:34:07;1.40;;;0.50;;
35606;SDS011;21729;58.392;15.656;2022-07-05T09:36:49;2.80;;;0.50;;
35606;SDS011;21729;58.392;15.656;2022-07-05T09:39:17;1.75;;;0.40;;
35606;SDS011;21729;58.392;15.656;2022-07-05T09:42:07;1.38;;;0.47;;
35606;SDS011;21729;58.392;15.656;2022-07-05T09:44:38;0.73;;;0.40;;
35606;SDS011;21729;58.392;15.656;2022-07-05T09:47:08;1.30;;;0.50;;
35606;SDS011;21729;58.392;15.656;2022-07-05T09:49:37;1.35;;;0.50;;
35606;SDS011;21729;58.392;15.656;2022-07-05T09:52:06;2.25;;;0.52;;
35606;SDS011;21729;58.392;15.656;2022-07-05T09:54:33;1.42;;;0.50;;
35606;SDS011;21729;58.392;15.656;2022-07-05T09:57:00;1.63;;;0.60;;
35606;SDS011;21729;58.392;15.656;2022-07-05T09:59:27;1.70;;;0.55;;
35606;SDS011;21729;58.392;15.656;2022-07-05T10:01:54;1.73;;;0.50;;
35606;SDS011;21729;58.392;15.656;2022-07-05T10:04:22;1.40;;;0.40;;
35606;SDS011;21729;58.392;15.656;2022-07-05T10:06:49;1.33;;;0.60;;
35606;SDS011;21729;58.392;15.656;2022-07-05T10:09:17;1.97;;;0.60;;
35606;SDS011;21729;58.392;15.656;2022-07-05T10:11:45;1.13;;;0.57;;
35606;SDS011;21729;58.392;15.656;2022-07-05T10:14:16;1.13;;;0.40;;
35606;SDS011;21729;58.392;15.656;2022-07-05T10:16:45;1.70;;;0.50;;
35606;SDS011;21729;58.392;15.656;2022-07-05T10:19:24;1.40;;;0.50;;
35606;SDS011;21729;58.392;15.656;2022-07-05T10:21:58;1.20;;;0.43;;
35606;SDS011;21729;58.392;15.656;2022-07-05T10:24:28;1.30;;;0.50;;
35606;SDS011;21729;58.392;15.656;2022-07-05T10:26:59;1.70;;;0.40;;
35606;SDS011;21729;58.392;15.656;2022-07-05T10:29:27;1.33;;;0.50;;
35606;SDS011;21729;58.392;15.656;2022-07-05T10:31:56;1.45;;;0.60;;
35606;SDS011;21729;58.392;15.656;2022-07-05T10:34:24;1.90;;;0.60;;
35606;SDS011;21729;58.392;15.656;2022-07-05T10:36:52;0.73;;;0.47;;
35606;SDS011;21729;58.392;15.656;2022-07-05T10:39:19;1.80;;;0.65;;
35606;SDS011;21729;58.392;15.656;2022-07-05T10:41:51;3.88;;;0.45;;
35606;SDS011;21729;58.392;15.656;2022-07-05T10:44:25;1.48;;;0.52;;
35606;SDS011;21729;58.392;15.656;2022-07-05T10:46:53;1.92;;;0.50;;
35606;SDS011;21729;58.392;15.656;2022-07-05T10:49:35;1.25;;;0.50;;
35606;SDS011;21729;58.392;15.656;2022-07-05T10:52:03;1.77;;;0.38;;
35606;SDS011;21729;58.392;15.656;2022-07-05T10:54:31;1.20;;;0.40;;
35606;SDS011;21729;58.392;15.656;2022-07-05T11:00:04;1.93;;;0.60;;
35606;SDS011;21729;58.392;15.656;2022-07-05T11:02:31;1.27;;;0.50;;
35606;SDS011;21729;58.392;15.656;2022-07-05T11:04:58;1.33;;;0.57;;
35606;SDS011;21729;58.392;15.656;2022-07-05T11:10:24;2.03;;;0.60;;
35606;SDS011;21729;58.392;15.656;2022-07-05T11:12:52;1.27;;;0.47;;
35606;SDS011;21729;58.392;15.656;2022-07-05T11:15:19;1.30;;;0.50;;
35606;SDS011;21729;58.392;15.656;2022-07-05T11:17:46;1.35;;;0.40;;
35606;SDS011;21729;58.392;15.656;2022-07-05T11:20:14;1.20;;;0.50;;
35606;SDS011;21729;58.392;15.656;2022-07-05T11:23:01;1.75;;;0.32;;
35606;SDS011;21729;58.392;15.656;2022-07-05T11:25:39;1.30;;;0.47;;
35606;SDS011;21729;58.392;15.656;2022-07-05T11:28:15;1.58;;;0.52;;
35606;SDS011;21729;58.392;15.656;2022-07-05T11:30:44;0.57;;;0.40;;
35606;SDS011;21729;58.392;15.656;2022-07-05T11:33:32;1.45;;;0.50;;
35606;SDS011;21729;58.392;15.656;2022-07-05T11:36:04;1.02;;;0.50;;
35606;SDS011;21729;58.392;15.656;2022-07-05T11:38:33;0.68;;;0.40;;
35606;SDS011;21729;58.392;15.656;2022-07-05T11:41:13;1.38;;;0.50;;
35606;SDS011;21729;58.392;15.656;2022-07-05T11:43:42;1.55;;;0.70;;
35606;SDS011;21729;58.392;15.656;2022-07-05T11:46:09;2.10;;;0.70;;
35606;SDS011;21729;58.392;15.656;2022-07-05T11:48:36;0.93;;;0.50;;
35606;SDS011;21729;58.392;15.656;2022-07-05T11:51:11;0.73;;;0.40;;
35606;SDS011;21729;58.392;15.656;2022-07-05T11:53:39;0.85;;;0.40;;
35606;SDS011;21729;58.392;15.656;2022-07-05T11:56:08;1.17;;;0.25;;
35606;SDS011;21729;58.392;15.656;2022-07-05T11:58:36;1.10;;;0.40;;
35606;SDS011;21729;58.392;15.656;2022-07-05T12:01:04;0.80;;;0.30;;
35606;SDS011;21729;58.392;15.656;2022-07-05T12:03:32;0.80;;;0.30;;
35606;SDS011;21729;58.392;15.656;2022-07-05T12:06:09;1.13;;;0.50;;
35606;SDS011;21729;58.392;15.656;2022-07-05T12:08:37;1.33;;;0.47;;
35606;SDS011;21729;58.392;15.656;2022-07-05T12:11:05;0.80;;;0.30;;
35606;SDS011;21729;58.392;15.656;2022-07-05T12:13:50;1.60;;;0.40;;
35606;SDS011;21729;58.392;15.656;2022-07-05T12:16:18;1.70;;;0.40;;
35606;SDS011;21729;58.392;15.656;2022-07-05T12:18:46;1.73;;;0.50;;
35606;SDS011;21729;58.392;15.656;2022-07-05T12:21:17;0.90;;;0.40;;
35606;SDS011;21729;58.392;15.656;2022-07-05T12:23:46;0.75;;;0.50;;
35606;SDS011;21729;58.392;15.656;2022-07-05T12:26:13;1.42;;;0.50;;
35606;SDS011;21729;58.392;15.656;2022-07-05T12:28:41;0.90;;;0.32;;
35606;SDS011;21729;58.392;15.656;2022-07-05T12:34:07;1.17;;;0.45;;
35606;SDS011;21729;58.392;15.656;2022-07-05T12:36:43;2.90;;;0.70;;
35606;SDS011;21729;58.392;15.656;2022-07-05T12:39:10;1.40;;;0.50;;
35606;SDS011;21729;58.392;15.656;2022-07-05T12:41:41;1.25;;;0.52;;
35606;SDS011;21729;58.392;15.656;2022-07-05T12:44:09;1.52;;;0.60;;
35606;SDS011;21729;58.392;15.656;2022-07-05T12:46:38;2.03;;;0.60;;
35606;SDS011;21729;58.392;15.656;2022-07-05T12:49:07;1.00;;;0.60;;
35606;SDS011;21729;58.392;15.656;2022-07-05T12:51:35;1.25;;;0.50;;
35606;SDS011;21729;58.392;15.656;2022-07-05T12:54:05;0.60;;;0.50;;
35606;SDS011;21729;58.392;15.656;2022-07-05T12:56:52;0.63;;;0.60;;
35606;SDS011;21729;58.392;15.656;2022-07-05T12:59:37;2.00;;;0.55;;
35606;SDS011;21729;58.392;15.656;2022-07-05T13:02:07;1.23;;;0.60;;
35606;SDS011;21729;58.392;15.656;2022-07-05T13:04:35;1.35;;;0.60;;
35606;SDS011;21729;58.392;15.656;2022-07-05T13:07:02;1.70;;;0.50;;
35606;SDS011;21729;58.392;15.656;2022-07-05T13:09:31;1.63;;;0.40;;
35606;SDS011;21729;58.392;15.656;2022-07-05T13:12:09;1.27;;;0.60;;
35606;SDS011;21729;58.392;15.656;2022-07-05T13:14:38;1.45;;;0.43;;
35606;SDS011;21729;58.392;15.656;2022-07-05T13:17:07;1.20;;;0.40;;
35606;SDS011;21729;58.392;15.656;2022-07-05T13:19:35;0.80;;;0.30;;
35606;SDS011;21729;58.392;15.656;2022-07-05T13:22:03;1.67;;;0.30;;
35606;SDS011;21729;58.392;15.656;2022-07-05T13:24:30;0.40;;;0.20;;
35606;SDS011;21729;58.392;15.656;2022-07-05T13:26:58;0.85;;;0.20;;
35606;SDS011;21729;58.392;15.656;2022-07-05T13:29:25;0.17;;;0.17;;
35606;SDS011;21729;58.392;15.656;2022-07-05T13:31:52;2.00;;;0.20;;
35606;SDS011;21729;58.392;15.656;2022-07-05T13:34:21;0.57;;;0.13;;
35606;SDS011;21729;58.392;15.656;2022-07-05T13:36:48;0.40;;;0.10;;
35606;SDS011;21729;58.392;15.656;2022-07-05T13:39:16;0.75;;;0.20;;
35606;SDS011;21729;58.392;15.656;2022-07-05T13:41:43;0.80;;;0.20;;
35606;SDS011;21729;58.392;15.656;2022-07-05T13:44:11;0.10;;;0.10;;
35606;SDS011;21729;58.392;15.656;2022-07-05T13:46:38;0.38;;;0.15;;
35606;SDS011;21729;58.392;15.656;2022-07-05T13:49:05;1.60;;;0.30;;
35606;SDS011;21729;58.392;15.656;2022-07-05T13:51:33;0.57;;;0.40;;
35606;SDS011;21729;58.392;15.656;2022-07-05T13:54:00;1.25;;;0.30;;
35606;SDS011;21729;58.392;15.656;2022-07-05T13:56:27;0.47;;;0.30;;
35606;SDS011;21729;58.392;15.656;2022-07-05T13:58:54;0.38;;;0.20;;
35606;SDS011;21729;58.392;15.656;2022-07-05T14:01:22;0.40;;;0.20;;
35606;SDS011;21729;58.392;15.656;2022-07-05T14:03:51;1.30;;;0.40;;
35606;SDS011;21729;58.392;15.656;2022-07-05T14:06:18;1.25;;;0.30;;
35606;SDS011;21729;58.392;15.656;2022-07-05T14:08:47;0.45;;;0.30;;
35606;SDS011;21729;58.392;15.656;2022-07-05T14:11:14;1.10;;;0.30;;
35606;SDS011;21729;58.392;15.656;2022-07-05T14:13:41;0.98;;;0.30;;
35606;SDS011;21729;58.392;15.656;2022-07-05T14:16:08;0.20;;;0.20;;
35606;SDS011;21729;58.392;15.656;2022-07-05T14:18:35;0.85;;;0.50;;
35606;SDS011;21729;58.392;15.656;2022-07-05T14:21:03;0.88;;;0.40;;
35606;SDS011;21729;58.392;15.656;2022-07-05T14:23:30;0.35;;;0.15;;
35606;SDS011;21729;58.392;15.656;2022-07-05T14:25:59;0.20;;;0.20;;
35606;SDS011;21729;58.392;15.656;2022-07-05T14:28:26;0.95;;;0.40;;
35606;SDS011;21729;58.392;15.656;2022-07-05T14:30:53;0.43;;;0.30;;
35606;SDS011;21729;58.392;15.656;2022-07-05T14:33:20;0.20;;;0.20;;
35606;SDS011;21729;58.392;15.656;2022-07-05T14:35:47;0.63;;;0.40;;
35606;SDS011;21729;58.392;15.656;2022-07-05T14:38:14;0.50;;;0.30;;
35606;SDS011;21729;58.392;15.656;2022-07-05T14:40:41;0.80;;;0.60;;
35606;SDS011;21729;58.392;15.656;2022-07-05T14:43:10;0.73;;;0.40;;
35606;SDS011;21729;58.392;15.656;2022-07-05T14:45:37;1.90;;;0.50;;
35606;SDS011;21729;58.392;15.656;2022-07-05T14:48:04;0.95;;;0.40;;
35606;SDS011;21729;58.392;15.656;2022-07-05T14:50:31;0.50;;;0.30;;
35606;SDS011;21729;58.392;15.656;2022-07-05T14:52:58;0.40;;;0.25;;